sensor_id;sensor_type;location;lat;lon;timestamp;pressure;altitude;pressure_sealevel;temperature
14023;BMP180;7086;48.116;11.580;2023-08-06T00:00:54;94658.00;;;19.80
14023;BMP180;7086;48.116;11.580;2023-08-06T00:03:21;94658.00;;;19.80
14023;BMP180;7086;48.116;11.580;2023-08-06T00:05:49;94664.00;;;19.80
14023;BMP180;7086;48.116;11.580;2023-08-06T00:08:16;94655.00;;;19.80
14023;BMP180;7086;48.116;11.580;2023-08-06T00:10:43;94653.00;;;19.80
14023;BMP180;7086;48.116;11.580;2023-08-06T00:13:11;94664.00;;;19.80
14023;BMP180;7086;48.116;11.580;2023-08-06T00:15:37;94661.00;;;19.80
14023;BMP180;7086;48.116;11.580;2023-08-06T00:18:04;94666.00;;;19.70
14023;BMP180;7086;48.116;11.580;2023-08-06T00:20:31;94669.00;;;19.70
14023;BMP180;7086;48.116;11.580;2023-08-06T00:22:58;94668.00;;;19.70
14023;BMP180;7086;48.116;11.580;2023-08-06T00:25:24;94662.00;;;19.70
14023;BMP180;7086;48.116;11.580;2023-08-06T00:27:51;94662.00;;;19.70
14023;BMP180;7086;48.116;11.580;2023-08-06T00:30:19;94662.00;;;19.70
14023;BMP180;7086;48.116;11.580;2023-08-06T00:32:46;94652.00;;;19.70
14023;BMP180;7086;48.116;11.580;2023-08-06T00:35:13;94670.00;;;19.70
14023;BMP180;7086;48.116;11.580;2023-08-06T00:37:39;94658.00;;;19.60
14023;BMP180;7086;48.116;11.580;2023-08-06T00:40:07;94662.00;;;19.60
14023;BMP180;7086;48.116;11.580;2023-08-06T00:42:34;94654.00;;;19.50
14023;BMP180;7086;48.116;11.580;2023-08-06T00:45:01;94652.00;;;19.40
14023;BMP180;7086;48.116;11.580;2023-08-06T00:47:29;94655.00;;;19.40
14023;BMP180;7086;48.116;11.580;2023-08-06T00:49:57;94650.00;;;19.40
14023;BMP180;7086;48.116;11.580;2023-08-06T00:52:24;94651.00;;;19.30
14023;BMP180;7086;48.116;11.580;2023-08-06T00:54:50;94648.00;;;19.30
14023;BMP180;7086;48.116;11.580;2023-08-06T00:57:17;94644.00;;;19.20
14023;BMP180;7086;48.116;11.580;2023-08-06T00:59:45;94651.00;;;19.20
14023;BMP180;7086;48.116;11.580;2023-08-06T01:02:12;94644.00;;;19.20
14023;BMP180;7086;48.116;11.580;2023-08-06T01:04:40;94640.00;;;19.20
14023;BMP180;7086;48.116;11.580;2023-08-06T01:07:16;94653.00;;;19.10
14023;BMP180;7086;48.116;11.580;2023-08-06T01:09:52;94653.00;;;19.10
14023;BMP180;7086;48.116;11.580;2023-08-06T01:12:28;94649.00;;;19.00
14023;BMP180;7086;48.116;11.580;2023-08-06T01:15:04;94645.00;;;19.00
14023;BMP180;7086;48.116;11.580;2023-08-06T01:17:34;94641.00;;;18.90
14023;BMP180;7086;48.116;11.580;2023-08-06T01:20:03;94640.00;;;18.90
14023;BMP180;7086;48.116;11.580;2023-08-06T01:22:31;94618.00;;;18.90
14023;BMP180;7086;48.116;11.580;2023-08-06T01:24:58;94627.00;;;18.80
14023;BMP180;7086;48.116;11.580;2023-08-06T01:27:30;94624.00;;;18.80
14023;BMP180;7086;48.116;11.580;2023-08-06T01:30:04;94617.00;;;18.80
14023;BMP180;7086;48.116;11.580;2023-08-06T01:32:34;94612.00;;;18.70
14023;BMP180;7086;48.116;11.580;2023-08-06T01:35:03;94606.00;;;18.80
14023;BMP180;7086;48.116;11.580;2023-08-06T01:37:32;94616.00;;;18.80
14023;BMP180;7086;48.116;11.580;2023-08-06T01:39:59;94613.00;;;18.70
14023;BMP180;7086;48.116;11.580;2023-08-06T01:42:25;94617.00;;;18.70
14023;BMP180;7086;48.116;11.580;2023-08-06T01:44:52;94620.00;;;18.70
14023;BMP180;7086;48.116;11.580;2023-08-06T01:47:19;94592.00;;;18.70
14023;BMP180;7086;48.116;11.580;2023-08-06T01:49:46;94619.00;;;18.70
14023;BMP180;7086;48.116;11.580;2023-08-06T01:52:13;94605.00;;;18.60
14023;BMP180;7086;48.116;11.580;2023-08-06T01:54:41;94614.00;;;18.60
14023;BMP180;7086;48.116;11.580;2023-08-06T01:57:08;94616.00;;;18.60
14023;BMP180;7086;48.116;11.580;2023-08-06T01:59:34;94615.00;;;18.60
14023;BMP180;7086;48.116;11.580;2023-08-06T02:02:01;94612.00;;;18.60
14023;BMP180;7086;48.116;11.580;2023-08-06T02:04:28;94610.00;;;18.60
14023;BMP180;7086;48.116;11.580;2023-08-06T02:06:55;94605.00;;;18.50
14023;BMP180;7086;48.116;11.580;2023-08-06T02:09:21;94579.00;;;18.50
14023;BMP180;7086;48.116;11.580;2023-08-06T02:11:50;94577.00;;;18.50
14023;BMP180;7086;48.116;11.580;2023-08-06T02:14:17;94600.00;;;18.50
14023;BMP180;7086;48.116;11.580;2023-08-06T02:16:43;94593.00;;;18.50
14023;BMP180;7086;48.116;11.580;2023-08-06T02:19:10;94588.00;;;18.50
14023;BMP180;7086;48.116;11.580;2023-08-06T02:21:37;94561.00;;;18.50
14023;BMP180;7086;48.116;11.580;2023-08-06T02:24:04;94585.00;;;18.50
14023;BMP180;7086;48.116;11.580;2023-08-06T02:26:30;94584.00;;;18.50
14023;BMP180;7086;48.116;11.580;2023-08-06T02:28:59;94581.00;;;18.40
14023;BMP180;7086;48.116;11.580;2023-08-06T02:31:25;94575.00;;;18.40
14023;BMP180;7086;48.116;11.580;2023-08-06T02:33:52;94562.00;;;18.40
14023;BMP180;7086;48.116;11.580;2023-08-06T02:36:19;94569.00;;;18.40
14023;BMP180;7086;48.116;11.580;2023-08-06T02:38:47;94566.00;;;18.40
14023;BMP180;7086;48.116;11.580;2023-08-06T02:41:13;94555.00;;;18.30
14023;BMP180;7086;48.116;11.580;2023-08-06T02:43:40;94547.00;;;18.30
14023;BMP180;7086;48.116;11.580;2023-08-06T02:46:08;94544.00;;;18.30
14023;BMP180;7086;48.116;11.580;2023-08-06T02:48:35;94545.00;;;18.30
14023;BMP180;7086;48.116;11.580;2023-08-06T02:51:01;94518.00;;;18.30
14023;BMP180;7086;48.116;11.580;2023-08-06T02:53:28;94526.00;;;18.30
14023;BMP180;7086;48.116;11.580;2023-08-06T02:55:55;94511.00;;;18.20
14023;BMP180;7086;48.116;11.580;2023-08-06T02:58:22;94523.00;;;18.20
14023;BMP180;7086;48.116;11.580;2023-08-06T03:00:59;94527.00;;;18.20
14023;BMP180;7086;48.116;11.580;2023-08-06T03:03:28;94494.00;;;18.20
14023;BMP180;7086;48.116;11.580;2023-08-06T03:05:54;94515.00;;;18.20
14023;BMP180;7086;48.116;11.580;2023-08-06T03:08:21;94518.00;;;18.20
14023;BMP180;7086;48.116;11.580;2023-08-06T03:10:48;94521.00;;;18.10
14023;BMP180;7086;48.116;11.580;2023-08-06T03:13:15;94524.00;;;18.10
14023;BMP180;7086;48.116;11.580;2023-08-06T03:15:42;94534.00;;;18.10
14023;BMP180;7086;48.116;11.580;2023-08-06T03:18:09;94536.00;;;18.10
14023;BMP180;7086;48.116;11.580;2023-08-06T03:20:37;94546.00;;;18.10
14023;BMP180;7086;48.116;11.580;2023-08-06T03:23:04;94540.00;;;18.00
14023;BMP180;7086;48.116;11.580;2023-08-06T03:25:31;94534.00;;;18.00
14023;BMP180;7086;48.116;11.580;2023-08-06T03:27:57;94538.00;;;18.00
14023;BMP180;7086;48.116;11.580;2023-08-06T03:30:24;94529.00;;;17.90
14023;BMP180;7086;48.116;11.580;2023-08-06T03:32:51;94538.00;;;17.90
14023;BMP180;7086;48.116;11.580;2023-08-06T03:35:17;94537.00;;;17.90
14023;BMP180;7086;48.116;11.580;2023-08-06T03:37:46;94531.00;;;17.90
14023;BMP180;7086;48.116;11.580;2023-08-06T03:40:13;94531.00;;;17.90
14023;BMP180;7086;48.116;11.580;2023-08-06T03:42:40;94526.00;;;17.90
14023;BMP180;7086;48.116;11.580;2023-08-06T03:45:08;94524.00;;;17.90
14023;BMP180;7086;48.116;11.580;2023-08-06T03:47:35;94529.00;;;17.90
14023;BMP180;7086;48.116;11.580;2023-08-06T03:50:02;94537.00;;;17.90
14023;BMP180;7086;48.116;11.580;2023-08-06T03:52:29;94534.00;;;17.90
14023;BMP180;7086;48.116;11.580;2023-08-06T03:54:57;94516.00;;;17.90
14023;BMP180;7086;48.116;11.580;2023-08-06T03:57:23;94519.00;;;17.90
14023;BMP180;7086;48.116;11.580;2023-08-06T03:59:50;94523.00;;;17.90
14023;BMP180;7086;48.116;11.580;2023-08-06T04:02:17;94526.00;;;17.80
14023;BMP180;7086;48.116;11.580;2023-08-06T04:04:44;94515.00;;;17.80
14023;BMP180;7086;48.116;11.580;2023-08-06T04:07:11;94529.00;;;17.80
14023;BMP180;7086;48.116;11.580;2023-08-06T04:09:52;94518.00;;;17.80
14023;BMP180;7086;48.116;11.580;2023-08-06T04:12:20;94515.00;;;17.80
14023;BMP180;7086;48.116;11.580;2023-08-06T04:14:46;94519.00;;;17.80
14023;BMP180;7086;48.116;11.580;2023-08-06T04:17:13;94518.00;;;17.80
14023;BMP180;7086;48.116;11.580;2023-08-06T04:19:40;94514.00;;;17.80
14023;BMP180;7086;48.116;11.580;2023-08-06T04:22:06;94520.00;;;17.90
14023;BMP180;7086;48.116;11.580;2023-08-06T04:24:33;94503.00;;;17.90
14023;BMP180;7086;48.116;11.580;2023-08-06T04:27:00;94519.00;;;17.90
14023;BMP180;7086;48.116;11.580;2023-08-06T04:29:28;94523.00;;;17.90
14023;BMP180;7086;48.116;11.580;2023-08-06T04:31:55;94518.00;;;17.90
14023;BMP180;7086;48.116;11.580;2023-08-06T04:34:22;94520.00;;;18.00
14023;BMP180;7086;48.116;11.580;2023-08-06T04:36:48;94526.00;;;18.00
14023;BMP180;7086;48.116;11.580;2023-08-06T04:39:15;94534.00;;;18.00
14023;BMP180;7086;48.116;11.580;2023-08-06T04:41:42;94529.00;;;18.10
14023;BMP180;7086;48.116;11.580;2023-08-06T04:44:09;94536.00;;;18.10
14023;BMP180;7086;48.116;11.580;2023-08-06T04:46:37;94532.00;;;18.10
14023;BMP180;7086;48.116;11.580;2023-08-06T04:49:03;94538.00;;;18.20
14023;BMP180;7086;48.116;11.580;2023-08-06T04:51:30;94532.00;;;18.20
14023;BMP180;7086;48.116;11.580;2023-08-06T04:53:57;94493.00;;;18.20
14023;BMP180;7086;48.116;11.580;2023-08-06T04:56:24;94524.00;;;18.30
14023;BMP180;7086;48.116;11.580;2023-08-06T04:58:51;94532.00;;;18.40
14023;BMP180;7086;48.116;11.580;2023-08-06T05:01:17;94532.00;;;18.50
14023;BMP180;7086;48.116;11.580;2023-08-06T05:03:46;94526.00;;;18.50
14023;BMP180;7086;48.116;11.580;2023-08-06T05:06:13;94531.00;;;18.50
14023;BMP180;7086;48.116;11.580;2023-08-06T05:08:40;94529.00;;;18.60
14023;BMP180;7086;48.116;11.580;2023-08-06T05:11:07;94522.00;;;18.60
14023;BMP180;7086;48.116;11.580;2023-08-06T05:13:33;94505.00;;;18.70
14023;BMP180;7086;48.116;11.580;2023-08-06T05:16:00;94518.00;;;18.70
14023;BMP180;7086;48.116;11.580;2023-08-06T05:18:27;94513.00;;;18.70
14023;BMP180;7086;48.116;11.580;2023-08-06T05:20:55;94515.00;;;18.70
14023;BMP180;7086;48.116;11.580;2023-08-06T05:23:22;94517.00;;;18.70
14023;BMP180;7086;48.116;11.580;2023-08-06T05:25:49;94526.00;;;18.80
14023;BMP180;7086;48.116;11.580;2023-08-06T05:28:16;94518.00;;;18.80
14023;BMP180;7086;48.116;11.580;2023-08-06T05:30:42;94524.00;;;18.80
14023;BMP180;7086;48.116;11.580;2023-08-06T05:33:09;94539.00;;;18.80
14023;BMP180;7086;48.116;11.580;2023-08-06T05:35:36;94529.00;;;18.80
14023;BMP180;7086;48.116;11.580;2023-08-06T05:38:04;94543.00;;;18.80
14023;BMP180;7086;48.116;11.580;2023-08-06T05:40:33;94537.00;;;18.80
14023;BMP180;7086;48.116;11.580;2023-08-06T05:42:59;94543.00;;;18.90
14023;BMP180;7086;48.116;11.580;2023-08-06T05:45:26;94534.00;;;18.90
14023;BMP180;7086;48.116;11.580;2023-08-06T05:47:53;94541.00;;;18.90
14023;BMP180;7086;48.116;11.580;2023-08-06T05:50:23;94522.00;;;18.90
14023;BMP180;7086;48.116;11.580;2023-08-06T05:52:50;94497.00;;;18.90
14023;BMP180;7086;48.116;11.580;2023-08-06T05:55:18;94536.00;;;19.00
14023;BMP180;7086;48.116;11.580;2023-08-06T05:57:45;94532.00;;;19.00
14023;BMP180;7086;48.116;11.580;2023-08-06T06:00:12;94535.00;;;19.00
14023;BMP180;7086;48.116;11.580;2023-08-06T06:02:39;94533.00;;;19.10
14023;BMP180;7086;48.116;11.580;2023-08-06T06:05:06;94534.00;;;19.10
14023;BMP180;7086;48.116;11.580;2023-08-06T06:07:32;94533.00;;;19.20
14023;BMP180;7086;48.116;11.580;2023-08-06T06:09:59;94533.00;;;19.30
14023;BMP180;7086;48.116;11.580;2023-08-06T06:12:27;94523.00;;;19.30
14023;BMP180;7086;48.116;11.580;2023-08-06T06:14:54;94534.00;;;19.40
14023;BMP180;7086;48.116;11.580;2023-08-06T06:17:21;94535.00;;;19.50
14023;BMP180;7086;48.116;11.580;2023-08-06T06:19:48;94532.00;;;19.70
14023;BMP180;7086;48.116;11.580;2023-08-06T06:22:15;94542.00;;;19.70
14023;BMP180;7086;48.116;11.580;2023-08-06T06:24:41;94543.00;;;19.80
14023;BMP180;7086;48.116;11.580;2023-08-06T06:27:08;94537.00;;;20.00
14023;BMP180;7086;48.116;11.580;2023-08-06T06:29:36;94532.00;;;20.10
14023;BMP180;7086;48.116;11.580;2023-08-06T06:32:03;94532.00;;;20.20
14023;BMP180;7086;48.116;11.580;2023-08-06T06:34:30;94533.00;;;20.30
14023;BMP180;7086;48.116;11.580;2023-08-06T06:36:57;94541.00;;;20.40
14023;BMP180;7086;48.116;11.580;2023-08-06T06:39:24;94529.00;;;20.60
14023;BMP180;7086;48.116;11.580;2023-08-06T06:41:50;94535.00;;;20.70
14023;BMP180;7086;48.116;11.580;2023-08-06T06:44:17;94533.00;;;20.90
14023;BMP180;7086;48.116;11.580;2023-08-06T06:46:46;94533.00;;;21.10
14023;BMP180;7086;48.116;11.580;2023-08-06T06:49:13;94538.00;;;21.20
14023;BMP180;7086;48.116;11.580;2023-08-06T06:51:40;94524.00;;;21.40
14023;BMP180;7086;48.116;11.580;2023-08-06T06:54:06;94537.00;;;21.60
14023;BMP180;7086;48.116;11.580;2023-08-06T06:56:33;94543.00;;;21.70
14023;BMP180;7086;48.116;11.580;2023-08-06T06:59:00;94539.00;;;21.80
14023;BMP180;7086;48.116;11.580;2023-08-06T07:01:27;94531.00;;;22.10
14023;BMP180;7086;48.116;11.580;2023-08-06T07:03:55;94513.00;;;22.40
14023;BMP180;7086;48.116;11.580;2023-08-06T07:06:22;94520.00;;;22.60
14023;BMP180;7086;48.116;11.580;2023-08-06T07:08:49;94532.00;;;22.90
14023;BMP180;7086;48.116;11.580;2023-08-06T07:11:16;94535.00;;;23.20
14023;BMP180;7086;48.116;11.580;2023-08-06T07:13:42;94543.00;;;23.50
14023;BMP180;7086;48.116;11.580;2023-08-06T07:16:09;94530.00;;;23.90
14023;BMP180;7086;48.116;11.580;2023-08-06T07:18:36;94534.00;;;24.20
14023;BMP180;7086;48.116;11.580;2023-08-06T07:21:04;94542.00;;;24.50
14023;BMP180;7086;48.116;11.580;2023-08-06T07:23:31;94543.00;;;24.50
14023;BMP180;7086;48.116;11.580;2023-08-06T07:25:58;94543.00;;;24.50
14023;BMP180;7086;48.116;11.580;2023-08-06T07:28:25;94548.00;;;24.30
14023;BMP180;7086;48.116;11.580;2023-08-06T07:30:51;94544.00;;;24.10
14023;BMP180;7086;48.116;11.580;2023-08-06T07:33:18;94551.00;;;23.90
14023;BMP180;7086;48.116;11.580;2023-08-06T07:35:45;94515.00;;;23.70
14023;BMP180;7086;48.116;11.580;2023-08-06T07:38:13;94547.00;;;23.40
14023;BMP180;7086;48.116;11.580;2023-08-06T07:40:40;94535.00;;;23.20
14023;BMP180;7086;48.116;11.580;2023-08-06T07:43:06;94535.00;;;23.10
14023;BMP180;7086;48.116;11.580;2023-08-06T07:45:33;94539.00;;;22.90
14023;BMP180;7086;48.116;11.580;2023-08-06T07:48:01;94538.00;;;22.80
14023;BMP180;7086;48.116;11.580;2023-08-06T07:50:28;94542.00;;;22.70
14023;BMP180;7086;48.116;11.580;2023-08-06T07:52:55;94549.00;;;22.60
14023;BMP180;7086;48.116;11.580;2023-08-06T07:55:23;94534.00;;;22.60
14023;BMP180;7086;48.116;11.580;2023-08-06T07:57:49;94517.00;;;22.50
14023;BMP180;7086;48.116;11.580;2023-08-06T08:00:16;94526.00;;;22.50
14023;BMP180;7086;48.116;11.580;2023-08-06T08:02:43;94532.00;;;22.50
14023;BMP180;7086;48.116;11.580;2023-08-06T08:05:11;94525.00;;;22.60
14023;BMP180;7086;48.116;11.580;2023-08-06T08:07:38;94523.00;;;22.80
14023;BMP180;7086;48.116;11.580;2023-08-06T08:10:06;94528.00;;;23.10
14023;BMP180;7086;48.116;11.580;2023-08-06T08:12:34;94526.00;;;23.50
14023;BMP180;7086;48.116;11.580;2023-08-06T08:15:01;94514.00;;;23.80
14023;BMP180;7086;48.116;11.580;2023-08-06T08:17:28;94508.00;;;24.10
14023;BMP180;7086;48.116;11.580;2023-08-06T08:19:55;94514.00;;;24.50
14023;BMP180;7086;48.116;11.580;2023-08-06T08:22:22;94493.00;;;24.70
14023;BMP180;7086;48.116;11.580;2023-08-06T08:24:49;94496.00;;;24.90
14023;BMP180;7086;48.116;11.580;2023-08-06T08:27:15;94507.00;;;25.10
14023;BMP180;7086;48.116;11.580;2023-08-06T08:29:43;94485.00;;;25.50
14023;BMP180;7086;48.116;11.580;2023-08-06T08:32:12;94493.00;;;25.90
14023;BMP180;7086;48.116;11.580;2023-08-06T08:34:39;94492.00;;;26.20
14023;BMP180;7086;48.116;11.580;2023-08-06T08:37:06;94494.00;;;26.30
14023;BMP180;7086;48.116;11.580;2023-08-06T08:39:33;94489.00;;;26.40
14023;BMP180;7086;48.116;11.580;2023-08-06T08:41:59;94490.00;;;26.40
14023;BMP180;7086;48.116;11.580;2023-08-06T08:44:27;94500.00;;;26.40
14023;BMP180;7086;48.116;11.580;2023-08-06T08:46:57;94476.00;;;26.40
14023;BMP180;7086;48.116;11.580;2023-08-06T08:49:24;94494.00;;;26.30
14023;BMP180;7086;48.116;11.580;2023-08-06T08:51:53;94514.00;;;26.20
14023;BMP180;7086;48.116;11.580;2023-08-06T08:54:23;94513.00;;;26.00
14023;BMP180;7086;48.116;11.580;2023-08-06T08:56:50;94506.00;;;25.80
14023;BMP180;7086;48.116;11.580;2023-08-06T08:59:17;94505.00;;;25.50
14023;BMP180;7086;48.116;11.580;2023-08-06T09:01:45;94501.00;;;25.30
14023;BMP180;7086;48.116;11.580;2023-08-06T09:04:19;94510.00;;;25.10
14023;BMP180;7086;48.116;11.580;2023-08-06T09:06:48;94501.00;;;25.00
14023;BMP180;7086;48.116;11.580;2023-08-06T09:09:22;94513.00;;;24.90
14023;BMP180;7086;48.116;11.580;2023-08-06T09:11:51;94518.00;;;24.80
14023;BMP180;7086;48.116;11.580;2023-08-06T09:14:18;94523.00;;;24.70
14023;BMP180;7086;48.116;11.580;2023-08-06T09:16:45;94524.00;;;24.60
14023;BMP180;7086;48.116;11.580;2023-08-06T09:19:13;94535.00;;;24.50
14023;BMP180;7086;48.116;11.580;2023-08-06T09:21:45;94538.00;;;24.30
14023;BMP180;7086;48.116;11.580;2023-08-06T09:24:14;94529.00;;;24.10
14023;BMP180;7086;48.116;11.580;2023-08-06T09:26:43;94533.00;;;24.00
14023;BMP180;7086;48.116;11.580;2023-08-06T09:29:11;94525.00;;;23.90
14023;BMP180;7086;48.116;11.580;2023-08-06T09:31:40;94536.00;;;23.80
14023;BMP180;7086;48.116;11.580;2023-08-06T09:34:11;94540.00;;;23.70
14023;BMP180;7086;48.116;11.580;2023-08-06T09:36:40;94531.00;;;23.60
14023;BMP180;7086;48.116;11.580;2023-08-06T09:39:13;94527.00;;;23.40
14023;BMP180;7086;48.116;11.580;2023-08-06T09:41:41;94547.00;;;23.30
14023;BMP180;7086;48.116;11.580;2023-08-06T09:44:15;94532.00;;;23.20
14023;BMP180;7086;48.116;11.580;2023-08-06T09:46:42;94541.00;;;23.20
14023;BMP180;7086;48.116;11.580;2023-08-06T09:49:09;94529.00;;;23.30
14023;BMP180;7086;48.116;11.580;2023-08-06T09:51:37;94540.00;;;23.30
14023;BMP180;7086;48.116;11.580;2023-08-06T09:54:05;94536.00;;;23.30
14023;BMP180;7086;48.116;11.580;2023-08-06T09:56:35;94531.00;;;23.40
14023;BMP180;7086;48.116;11.580;2023-08-06T09:59:04;94543.00;;;23.40
14023;BMP180;7086;48.116;11.580;2023-08-06T10:01:32;94535.00;;;23.30
14023;BMP180;7086;48.116;11.580;2023-08-06T10:03:59;94544.00;;;23.30
14023;BMP180;7086;48.116;11.580;2023-08-06T10:06:26;94547.00;;;23.30
14023;BMP180;7086;48.116;11.580;2023-08-06T10:08:55;94547.00;;;23.30
14023;BMP180;7086;48.116;11.580;2023-08-06T10:11:23;94547.00;;;23.10
14023;BMP180;7086;48.116;11.580;2023-08-06T10:13:54;94547.00;;;23.10
14023;BMP180;7086;48.116;11.580;2023-08-06T10:16:22;94557.00;;;23.00
14023;BMP180;7086;48.116;11.580;2023-08-06T10:18:49;94542.00;;;22.80
14023;BMP180;7086;48.116;11.580;2023-08-06T10:21:17;94537.00;;;22.70
14023;BMP180;7086;48.116;11.580;2023-08-06T10:23:44;94553.00;;;22.60
14023;BMP180;7086;48.116;11.580;2023-08-06T10:26:10;94545.00;;;22.60
14023;BMP180;7086;48.116;11.580;2023-08-06T10:28:38;94532.00;;;22.80
14023;BMP180;7086;48.116;11.580;2023-08-06T10:31:06;94541.00;;;23.10
14023;BMP180;7086;48.116;11.580;2023-08-06T10:33:43;94538.00;;;23.40
14023;BMP180;7086;48.116;11.580;2023-08-06T10:36:11;94536.00;;;23.70
14023;BMP180;7086;48.116;11.580;2023-08-06T10:38:44;94553.00;;;23.80
14023;BMP180;7086;48.116;11.580;2023-08-06T10:41:16;94555.00;;;23.90
14023;BMP180;7086;48.116;11.580;2023-08-06T10:43:43;94539.00;;;23.70
14023;BMP180;7086;48.116;11.580;2023-08-06T10:46:21;94566.00;;;23.70
14023;BMP180;7086;48.116;11.580;2023-08-06T10:48:48;94557.00;;;23.60
14023;BMP180;7086;48.116;11.580;2023-08-06T10:51:15;94560.00;;;23.40
14023;BMP180;7086;48.116;11.580;2023-08-06T10:53:43;94555.00;;;23.40
14023;BMP180;7086;48.116;11.580;2023-08-06T10:56:13;94555.00;;;23.30
14023;BMP180;7086;48.116;11.580;2023-08-06T10:58:40;94569.00;;;23.40
14023;BMP180;7086;48.116;11.580;2023-08-06T11:01:07;94543.00;;;23.40
14023;BMP180;7086;48.116;11.580;2023-08-06T11:03:36;94542.00;;;23.60
14023;BMP180;7086;48.116;11.580;2023-08-06T11:06:03;94544.00;;;23.90
14023;BMP180;7086;48.116;11.580;2023-08-06T11:08:35;94542.00;;;24.10
14023;BMP180;7086;48.116;11.580;2023-08-06T11:11:08;94549.00;;;24.10
14023;BMP180;7086;48.116;11.580;2023-08-06T11:13:36;94549.00;;;24.30
14023;BMP180;7086;48.116;11.580;2023-08-06T11:16:04;94554.00;;;24.40
14023;BMP180;7086;48.116;11.580;2023-08-06T11:18:31;94554.00;;;24.40
14023;BMP180;7086;48.116;11.580;2023-08-06T11:21:00;94557.00;;;24.40
14023;BMP180;7086;48.116;11.580;2023-08-06T11:23:27;94563.00;;;24.30
14023;BMP180;7086;48.116;11.580;2023-08-06T11:25:55;94578.00;;;24.20
14023;BMP180;7086;48.116;11.580;2023-08-06T11:28:21;94581.00;;;24.00
14023;BMP180;7086;48.116;11.580;2023-08-06T11:30:48;94576.00;;;23.90
14023;BMP180;7086;48.116;11.580;2023-08-06T11:33:20;94570.00;;;23.80
14023;BMP180;7086;48.116;11.580;2023-08-06T11:35:47;94577.00;;;23.60
14023;BMP180;7086;48.116;11.580;2023-08-06T11:38:16;94570.00;;;23.60
14023;BMP180;7086;48.116;11.580;2023-08-06T11:40:44;94574.00;;;23.60
14023;BMP180;7086;48.116;11.580;2023-08-06T11:43:12;94587.00;;;23.60
14023;BMP180;7086;48.116;11.580;2023-08-06T11:45:39;94579.00;;;23.60
14023;BMP180;7086;48.116;11.580;2023-08-06T11:48:06;94565.00;;;23.50
14023;BMP180;7086;48.116;11.580;2023-08-06T11:50:36;94585.00;;;23.30
14023;BMP180;7086;48.116;11.580;2023-08-06T11:53:03;94592.00;;;23.40
14023;BMP180;7086;48.116;11.580;2023-08-06T11:55:31;94573.00;;;23.40
14023;BMP180;7086;48.116;11.580;2023-08-06T11:58:03;94600.00;;;23.60
14023;BMP180;7086;48.116;11.580;2023-08-06T12:00:30;94607.00;;;23.70
14023;BMP180;7086;48.116;11.580;2023-08-06T12:02:57;94594.00;;;23.90
14023;BMP180;7086;48.116;11.580;2023-08-06T12:05:29;94607.00;;;24.00
14023;BMP180;7086;48.116;11.580;2023-08-06T12:07:58;94601.00;;;24.00
14023;BMP180;7086;48.116;11.580;2023-08-06T12:10:27;94613.00;;;24.00
14023;BMP180;7086;48.116;11.580;2023-08-06T12:12:55;94599.00;;;24.00
14023;BMP180;7086;48.116;11.580;2023-08-06T12:15:23;94601.00;;;23.90
14023;BMP180;7086;48.116;11.580;2023-08-06T12:17:50;94598.00;;;23.90
14023;BMP180;7086;48.116;11.580;2023-08-06T12:20:17;94608.00;;;23.80
14023;BMP180;7086;48.116;11.580;2023-08-06T12:22:44;94607.00;;;23.80
14023;BMP180;7086;48.116;11.580;2023-08-06T12:25:11;94607.00;;;23.80
14023;BMP180;7086;48.116;11.580;2023-08-06T12:27:40;94612.00;;;23.70
14023;BMP180;7086;48.116;11.580;2023-08-06T12:30:09;94580.00;;;23.50
14023;BMP180;7086;48.116;11.580;2023-08-06T12:32:36;94603.00;;;23.50
14023;BMP180;7086;48.116;11.580;2023-08-06T12:35:04;94599.00;;;23.40
14023;BMP180;7086;48.116;11.580;2023-08-06T12:37:33;94591.00;;;23.30
14023;BMP180;7086;48.116;11.580;2023-08-06T12:39:59;94599.00;;;23.20
14023;BMP180;7086;48.116;11.580;2023-08-06T12:42:26;94582.00;;;23.10
14023;BMP180;7086;48.116;11.580;2023-08-06T12:44:53;94622.00;;;23.00
14023;BMP180;7086;48.116;11.580;2023-08-06T12:47:23;94622.00;;;22.90
14023;BMP180;7086;48.116;11.580;2023-08-06T12:49:49;94614.00;;;22.70
14023;BMP180;7086;48.116;11.580;2023-08-06T12:52:17;94616.00;;;22.50
14023;BMP180;7086;48.116;11.580;2023-08-06T12:54:45;94624.00;;;22.30
14023;BMP180;7086;48.116;11.580;2023-08-06T12:57:14;94613.00;;;22.10
14023;BMP180;7086;48.116;11.580;2023-08-06T12:59:41;94622.00;;;22.00
14023;BMP180;7086;48.116;11.580;2023-08-06T13:02:08;94622.00;;;22.00
14023;BMP180;7086;48.116;11.580;2023-08-06T13:04:36;94633.00;;;22.10
14023;BMP180;7086;48.116;11.580;2023-08-06T13:07:04;94586.00;;;22.20
14023;BMP180;7086;48.116;11.580;2023-08-06T13:09:32;94642.00;;;22.30
14023;BMP180;7086;48.116;11.580;2023-08-06T13:11:59;94629.00;;;22.40
14023;BMP180;7086;48.116;11.580;2023-08-06T13:14:30;94643.00;;;22.50
14023;BMP180;7086;48.116;11.580;2023-08-06T13:16:57;94639.00;;;22.50
14023;BMP180;7086;48.116;11.580;2023-08-06T13:19:27;94639.00;;;22.50
14023;BMP180;7086;48.116;11.580;2023-08-06T13:22:03;94652.00;;;22.50
14023;BMP180;7086;48.116;11.580;2023-08-06T13:24:32;94649.00;;;22.50
14023;BMP180;7086;48.116;11.580;2023-08-06T13:27:00;94634.00;;;22.50
14023;BMP180;7086;48.116;11.580;2023-08-06T13:29:27;94639.00;;;22.40
14023;BMP180;7086;48.116;11.580;2023-08-06T13:31:54;94650.00;;;22.30
14023;BMP180;7086;48.116;11.580;2023-08-06T13:34:21;94629.00;;;22.10
14023;BMP180;7086;48.116;11.580;2023-08-06T13:36:47;94648.00;;;22.00
14023;BMP180;7086;48.116;11.580;2023-08-06T13:39:16;94639.00;;;21.80
14023;BMP180;7086;48.116;11.580;2023-08-06T13:41:43;94644.00;;;21.70
14023;BMP180;7086;48.116;11.580;2023-08-06T13:44:12;94649.00;;;21.70
14023;BMP180;7086;48.116;11.580;2023-08-06T13:46:40;94649.00;;;21.70
14023;BMP180;7086;48.116;11.580;2023-08-06T13:49:07;94654.00;;;21.70
14023;BMP180;7086;48.116;11.580;2023-08-06T13:51:34;94639.00;;;21.70
14023;BMP180;7086;48.116;11.580;2023-08-06T13:54:01;94651.00;;;21.70
14023;BMP180;7086;48.116;11.580;2023-08-06T13:56:29;94663.00;;;21.60
14023;BMP180;7086;48.116;11.580;2023-08-06T13:58:56;94663.00;;;21.60
14023;BMP180;7086;48.116;11.580;2023-08-06T14:01:23;94662.00;;;21.50
14023;BMP180;7086;48.116;11.580;2023-08-06T14:03:50;94653.00;;;21.40
14023;BMP180;7086;48.116;11.580;2023-08-06T14:06:20;94618.00;;;21.30
14023;BMP180;7086;48.116;11.580;2023-08-06T14:08:47;94657.00;;;21.20
14023;BMP180;7086;48.116;11.580;2023-08-06T14:11:17;94679.00;;;21.00